createdAt,value
2023-02-19T00:03:55.003Z,2.00
2023-02-19T00:08:59.740Z,1.83
2023-02-19T00:14:03.513Z,2.05
2023-02-19T00:19:08.769Z,1.90
2023-02-19T00:24:14.319Z,2.33
2023-02-19T00:29:18.532Z,2.35
2023-02-19T00:34:21.250Z,2.05
2023-02-19T00:39:25.476Z,1.98
2023-02-19T00:44:28.375Z,1.92
2023-02-19T00:49:31.071Z,2.08
2023-02-19T00:54:35.174Z,1.70
2023-02-19T00:59:37.877Z,2.13
2023-02-19T01:04:40.697Z,1.90
2023-02-19T01:09:44.842Z,1.95
2023-02-19T01:14:47.656Z,2.22
2023-02-19T01:19:50.656Z,2.13
2023-02-19T01:24:54.743Z,1.73
2023-02-19T01:29:57.639Z,1.75
2023-02-19T01:35:00.476Z,1.63
2023-02-19T01:40:05.140Z,1.83
2023-02-19T01:45:27.320Z,1.90
2023-02-19T01:50:34.108Z,1.75
2023-02-19T01:55:38.374Z,1.55
2023-02-19T02:00:41.285Z,1.50
2023-02-19T02:05:48.853Z,1.73
2023-02-19T02:10:53.889Z,1.60
2023-02-19T02:16:04.920Z,1.70
2023-02-19T02:21:27.264Z,1.40
2023-02-19T02:26:42.201Z,1.55
2023-02-19T02:31:50.419Z,1.40
2023-02-19T02:36:55.662Z,0.93
2023-02-19T02:42:17.377Z,0.82
2023-02-19T02:47:42.001Z,0.90
2023-02-19T02:53:04.036Z,1.00
2023-02-19T02:58:08.289Z,0.77
2023-02-19T03:03:14.426Z,0.63
2023-02-19T03:08:21.301Z,0.50
2023-02-19T03:13:47.629Z,0.55
2023-02-19T03:19:13.153Z,0.40
2023-02-19T03:24:35.348Z,0.50
2023-02-19T03:29:40.054Z,0.68
2023-02-19T03:34:48.114Z,0.35
2023-02-19T03:39:51.175Z,0.40
2023-02-19T03:45:03.390Z,0.30
2023-02-19T03:50:16.819Z,0.40
2023-02-19T03:55:25.351Z,0.60
2023-02-19T04:00:32.567Z,0.95
2023-02-19T04:05:40.798Z,1.00
2023-02-19T04:10:46.247Z,0.95
2023-02-19T04:15:51.651Z,1.00
2023-02-19T04:20:56.383Z,1.02
2023-02-19T04:26:01.516Z,1.13
2023-02-19T04:31:04.527Z,1.00
2023-02-19T04:36:11.526Z,1.80
2023-02-19T04:41:14.307Z,1.13
2023-02-19T04:46:17.171Z,0.90
2023-02-19T04:51:21.375Z,1.02
2023-02-19T04:56:24.331Z,1.05
2023-02-19T05:01:27.225Z,0.80
2023-02-19T05:06:31.334Z,0.60
2023-02-19T05:11:34.391Z,0.40
2023-02-19T05:16:37.135Z,0.30
2023-02-19T05:21:41.340Z,0.20
2023-02-19T05:26:45.406Z,0.10
2023-02-19T05:31:49.058Z,0.17
2023-02-19T05:36:53.361Z,0.30
2023-02-19T05:41:56.125Z,0.47
2023-02-19T05:46:58.858Z,0.90
2023-02-19T05:52:03.069Z,0.80
2023-02-19T05:57:05.791Z,0.90
2023-02-19T06:02:08.488Z,0.80
2023-02-19T06:07:12.851Z,0.93
2023-02-19T06:12:15.825Z,0.80
2023-02-19T06:17:18.657Z,0.68
2023-02-19T06:22:22.783Z,0.82
2023-02-19T06:27:25.590Z,1.08
2023-02-19T06:32:28.339Z,1.10
2023-02-19T06:37:32.488Z,0.90
2023-02-19T06:42:35.391Z,0.80
2023-02-19T06:47:38.092Z,0.77
2023-02-19T06:52:42.107Z,0.90
2023-02-19T06:57:44.856Z,0.82
2023-02-19T07:02:47.639Z,0.95
2023-02-19T07:07:52.060Z,1.00
2023-02-19T07:12:54.804Z,0.75
2023-02-19T07:17:57.601Z,0.65
2023-02-19T07:23:01.650Z,0.47
2023-02-19T07:28:04.509Z,0.60
2023-02-19T07:33:10.107Z,0.50
2023-02-19T07:38:16.836Z,0.40
2023-02-19T07:43:19.770Z,0.70
2023-02-19T07:48:22.941Z,0.40
2023-02-19T07:53:28.296Z,0.60
2023-02-19T07:58:31.612Z,0.65
2023-02-19T08:03:34.582Z,0.52
2023-02-19T08:08:38.910Z,0.50
2023-02-19T08:13:41.717Z,0.43
2023-02-19T08:18:45.244Z,0.47
2023-02-19T08:23:51.183Z,0.90
2023-02-19T08:28:54.081Z,0.80
2023-02-19T08:33:56.818Z,0.80
2023-02-19T08:39:00.920Z,0.85
2023-02-19T08:44:03.777Z,0.80
2023-02-19T08:49:06.558Z,0.93
2023-02-19T08:54:10.692Z,0.90
2023-02-19T08:59:13.519Z,0.50
2023-02-19T09:04:16.360Z,0.80
2023-02-19T09:09:20.515Z,0.50
2023-02-19T09:14:23.368Z,0.85
2023-02-19T09:19:26.455Z,0.50
2023-02-19T09:24:30.697Z,0.30
2023-02-19T09:29:34.597Z,0.50
2023-02-19T09:34:38.886Z,0.77
2023-02-19T09:39:42.948Z,0.35
2023-02-19T09:44:48.381Z,0.40
2023-02-19T09:49:52.754Z,0.50
2023-02-19T09:54:59.355Z,0.50
2023-02-19T10:00:08.008Z,0.50
2023-02-19T10:05:14.910Z,0.68
2023-02-19T10:10:28.057Z,0.80
2023-02-19T10:15:33.617Z,0.52
2023-02-19T10:20:36.457Z,0.60
2023-02-19T10:25:44.133Z,0.30
2023-02-19T10:30:50.340Z,0.50
2023-02-19T10:35:55.438Z,0.80
2023-02-19T10:41:06.200Z,0.60
2023-02-19T10:46:16.567Z,0.60
2023-02-19T10:51:21.698Z,0.60
2023-02-19T10:56:27.037Z,1.02
2023-02-19T11:01:30.105Z,1.40
2023-02-19T11:06:35.000Z,1.30
2023-02-19T11:11:40.257Z,1.02
2023-02-19T11:16:45.239Z,1.17
2023-02-19T11:21:49.037Z,1.20
2023-02-19T11:26:53.141Z,1.05
2023-02-19T11:31:56.268Z,0.73
2023-02-19T11:37:14.486Z,1.23
2023-02-19T11:42:31.591Z,0.80
2023-02-19T11:48:07.446Z,0.60
2023-02-19T11:53:18.255Z,0.65
2023-02-19T11:58:39.319Z,0.65
2023-02-19T12:03:55.755Z,0.80
2023-02-19T12:09:13.722Z,0.50
2023-02-19T12:14:57.769Z,0.88
2023-02-19T12:20:08.170Z,1.02
2023-02-19T12:25:34.103Z,1.20
2023-02-19T12:30:53.416Z,1.42
2023-02-19T12:36:05.562Z,1.20
2023-02-19T12:41:22.869Z,1.15
2023-02-19T12:46:31.741Z,1.40
2023-02-19T12:51:40.460Z,1.10
2023-02-19T12:56:46.018Z,1.10
2023-02-19T13:01:53.954Z,1.13
2023-02-19T13:07:00.092Z,1.00
2023-02-19T13:12:06.536Z,0.90
2023-02-19T13:17:19.180Z,0.77
2023-02-19T13:22:45.524Z,0.45
2023-02-19T13:28:07.622Z,0.80
2023-02-19T13:33:23.610Z,0.45
2023-02-19T13:38:26.512Z,0.70
2023-02-19T13:43:31.270Z,0.70
2023-02-19T13:48:37.799Z,0.52
2023-02-19T13:53:52.381Z,0.52
2023-02-19T13:58:57.901Z,0.70
2023-02-19T14:04:17.483Z,1.05
2023-02-19T14:09:47.639Z,0.70
2023-02-19T14:14:51.629Z,0.80
2023-02-19T14:19:58.268Z,0.77
2023-02-19T14:25:01.547Z,0.93
2023-02-19T14:30:05.862Z,0.50
2023-02-19T14:35:19.087Z,0.82
2023-02-19T14:40:24.847Z,0.60
2023-02-19T14:45:29.303Z,0.85
2023-02-19T14:50:35.004Z,0.93
2023-02-19T14:55:39.471Z,0.90
2023-02-19T15:00:43.195Z,0.80
2023-02-19T15:05:49.252Z,0.60
2023-02-19T15:10:52.115Z,0.68
2023-02-19T15:15:55.405Z,0.98
2023-02-19T15:21:02.654Z,0.63
2023-02-19T15:26:05.799Z,0.98
2023-02-19T15:31:15.376Z,0.70
2023-02-19T15:36:24.964Z,0.50
2023-02-19T15:41:29.561Z,0.60
2023-02-19T15:46:32.679Z,0.40
2023-02-19T15:51:41.158Z,0.50
2023-02-19T15:56:45.953Z,0.68
2023-02-19T16:01:49.084Z,0.80
2023-02-19T16:06:56.994Z,0.60
2023-02-19T16:12:01.251Z,0.60
2023-02-19T16:17:12.912Z,0.60
2023-02-19T16:22:19.531Z,0.55
2023-02-19T16:27:31.232Z,0.60
2023-02-19T16:32:34.103Z,0.60
2023-02-19T16:37:40.793Z,0.82
2023-02-19T16:43:26.198Z,0.60
2023-02-19T16:48:29.171Z,0.70
2023-02-19T16:53:33.428Z,0.47
2023-02-19T16:58:38.273Z,1.50
2023-02-19T17:03:42.788Z,0.75
2023-02-19T17:08:47.104Z,0.80
2023-02-19T17:13:50.189Z,0.95
2023-02-19T17:18:53.006Z,0.50
2023-02-19T17:23:57.749Z,1.17
2023-02-19T17:29:01.876Z,1.20
2023-02-19T17:34:04.627Z,1.20
2023-02-19T17:39:14.999Z,1.08
2023-02-19T17:44:18.021Z,2.33
2023-02-19T17:49:20.733Z,2.38
2023-02-19T17:54:24.892Z,2.00
2023-02-19T17:59:27.681Z,1.73
2023-02-19T18:04:30.344Z,2.33
2023-02-19T18:09:34.504Z,3.75
2023-02-19T18:14:37.358Z,3.30
2023-02-19T18:19:40.182Z,2.60
2023-02-19T18:24:48.229Z,2.75
2023-02-19T18:29:51.892Z,1.92
2023-02-19T18:34:57.097Z,1.90
2023-02-19T18:40:02.025Z,2.38
2023-02-19T18:45:05.272Z,1.90
2023-02-19T18:50:09.769Z,1.48
2023-02-19T18:55:13.929Z,1.60
2023-02-19T19:00:18.545Z,1.80
2023-02-19T19:05:23.089Z,1.73
2023-02-19T19:10:27.679Z,1.77
2023-02-19T19:15:30.494Z,1.80
2023-02-19T19:20:33.286Z,1.58
2023-02-19T19:25:37.486Z,1.87
2023-02-19T19:30:40.495Z,1.80
2023-02-19T19:35:43.459Z,2.72
2023-02-19T19:40:47.637Z,1.92
2023-02-19T19:45:50.393Z,2.50
2023-02-19T19:50:53.193Z,3.60
2023-02-19T19:55:57.415Z,2.53
2023-02-19T20:01:01.605Z,1.70
2023-02-19T20:06:04.853Z,1.38
2023-02-19T20:11:09.113Z,1.45
2023-02-19T20:16:14.189Z,1.70
2023-02-19T20:21:17.361Z,1.90
2023-02-19T20:26:26.720Z,1.70
2023-02-19T20:31:29.883Z,1.73
2023-02-19T20:36:32.793Z,1.83
2023-02-19T20:41:36.898Z,1.77
2023-02-19T20:46:42.557Z,1.57
2023-02-19T20:51:45.919Z,1.30
2023-02-19T20:56:52.440Z,1.80
2023-02-19T21:01:55.445Z,1.43
2023-02-19T21:06:58.355Z,1.50
2023-02-19T21:12:02.525Z,1.42
2023-02-19T21:17:06.489Z,1.53
2023-02-19T21:22:09.339Z,1.60
2023-02-19T21:27:13.578Z,2.00
2023-02-19T21:32:16.760Z,3.17
2023-02-19T21:37:19.919Z,2.55
2023-02-19T21:42:28.178Z,2.80
2023-02-19T21:47:31.046Z,3.28
2023-02-19T21:52:33.848Z,2.90
2023-02-19T21:57:37.958Z,3.55
2023-02-19T22:02:40.718Z,3.17
2023-02-19T22:07:43.712Z,3.57
2023-02-19T22:12:48.822Z,3.60
2023-02-19T22:17:51.519Z,3.53
2023-02-19T22:22:54.250Z,2.57
2023-02-19T22:28:00.146Z,2.83
2023-02-19T22:33:02.987Z,2.25
2023-02-19T22:38:06.329Z,2.83
2023-02-19T22:43:10.718Z,3.70
2023-02-19T22:48:19.236Z,2.90
2023-02-19T22:53:27.872Z,2.80
2023-02-19T22:58:32.121Z,3.00
2023-02-19T23:03:34.883Z,2.60
2023-02-19T23:08:37.631Z,2.97
2023-02-19T23:13:43.392Z,2.83
2023-02-19T23:18:46.594Z,2.90
2023-02-19T23:23:49.416Z,2.80
2023-02-19T23:28:53.633Z,2.90
2023-02-19T23:33:56.455Z,2.90
2023-02-19T23:38:59.246Z,3.17
2023-02-19T23:44:03.436Z,2.67
2023-02-19T23:49:06.477Z,2.60
2023-02-19T23:54:09.430Z,2.50
2023-02-19T23:59:13.765Z,2.67
